Terminal Aerodrome Forecast
Issued by NWS

Home | Current Version | Previous Version | Text Only | Print | Product List | Glossary On
Versions: 1 2 3 4 5 6 7 8 9 10 11 12 13 14
707
FTUS45 KRIW 191319 AAA
TAFJAC
TAF AMD
KJAC 191319Z 1913/2012 21010KT 3SM -SNRA BR SCT005 OVC015
      TEMPO 1914/1918 2SM -SN BR OVC005
     FM191800 19010KT 4SM -SN BR SCT015 OVC030
     FM200100 20011KT P6SM SCT022 BKN040
      AMD LTD TO CLD VIS AND WIND=

USA.gov is the U.S. government's official web portal to all federal, state and local government web resources and services.